sensor_id;sensor_type;location;lat;lon;timestamp;P1;durP1;ratioP1;P2;durP2;ratioP2
64986;SDS011;67903;52.108;9.358;2023-04-24T00:02:35;1.20;;;1.10;;
64986;SDS011;67903;52.108;9.358;2023-04-24T00:05:26;1.00;;;1.00;;
64986;SDS011;67903;52.108;9.358;2023-04-24T00:08:14;2.25;;;1.00;;
64986;SDS011;67903;52.108;9.358;2023-04-24T00:11:01;1.77;;;1.17;;
64986;SDS011;67903;52.108;9.358;2023-04-24T00:13:48;2.30;;;1.20;;
64986;SDS011;67903;52.108;9.358;2023-04-24T00:16:35;1.20;;;1.08;;
64986;SDS011;67903;52.108;9.358;2023-04-24T00:19:22;1.38;;;1.20;;
64986;SDS011;67903;52.108;9.358;2023-04-24T00:22:09;2.22;;;1.20;;
64986;SDS011;67903;52.108;9.358;2023-04-24T00:24:57;1.13;;;1.00;;
64986;SDS011;67903;52.108;9.358;2023-04-24T00:27:44;1.35;;;1.20;;
64986;SDS011;67903;52.108;9.358;2023-04-24T00:30:31;0.90;;;0.90;;
64986;SDS011;67903;52.108;9.358;2023-04-24T00:33:19;1.27;;;0.98;;
64986;SDS011;67903;52.108;9.358;2023-04-24T00:36:06;1.67;;;0.93;;
64986;SDS011;67903;52.108;9.358;2023-04-24T00:38:54;1.33;;;1.20;;
64986;SDS011;67903;52.108;9.358;2023-04-24T00:41:41;1.15;;;1.02;;
64986;SDS011;67903;52.108;9.358;2023-04-24T00:44:29;2.97;;;1.23;;
64986;SDS011;67903;52.108;9.358;2023-04-24T00:47:16;1.23;;;1.13;;
64986;SDS011;67903;52.108;9.358;2023-04-24T00:50:05;1.20;;;1.02;;
64986;SDS011;67903;52.108;9.358;2023-04-24T00:52:53;1.23;;;1.13;;
64986;SDS011;67903;52.108;9.358;2023-04-24T00:55:41;1.20;;;1.10;;
64986;SDS011;67903;52.108;9.358;2023-04-24T00:58:29;1.20;;;1.10;;
64986;SDS011;67903;52.108;9.358;2023-04-24T01:01:18;1.13;;;1.02;;
64986;SDS011;67903;52.108;9.358;2023-04-24T01:04:07;1.73;;;1.10;;
64986;SDS011;67903;52.108;9.358;2023-04-24T01:06:58;1.67;;;1.00;;
64986;SDS011;67903;52.108;9.358;2023-04-24T01:09:47;1.52;;;1.08;;
64986;SDS011;67903;52.108;9.358;2023-04-24T01:12:37;1.60;;;1.08;;
64986;SDS011;67903;52.108;9.358;2023-04-24T01:15:24;1.85;;;1.10;;
64986;SDS011;67903;52.108;9.358;2023-04-24T01:18:12;1.77;;;1.10;;
64986;SDS011;67903;52.108;9.358;2023-04-24T01:21:02;1.58;;;1.15;;
64986;SDS011;67903;52.108;9.358;2023-04-24T01:23:50;3.15;;;1.00;;
64986;SDS011;67903;52.108;9.358;2023-04-24T01:26:38;1.40;;;1.30;;
64986;SDS011;67903;52.108;9.358;2023-04-24T01:29:25;1.20;;;1.10;;
64986;SDS011;67903;52.108;9.358;2023-04-24T01:32:12;1.50;;;1.40;;
64986;SDS011;67903;52.108;9.358;2023-04-24T01:34:59;2.33;;;1.20;;
64986;SDS011;67903;52.108;9.358;2023-04-24T01:37:47;1.17;;;1.10;;
64986;SDS011;67903;52.108;9.358;2023-04-24T01:40:34;1.38;;;1.20;;
64986;SDS011;67903;52.108;9.358;2023-04-24T01:43:21;1.20;;;1.10;;
64986;SDS011;67903;52.108;9.358;2023-04-24T01:46:09;3.00;;;1.08;;
64986;SDS011;67903;52.108;9.358;2023-04-24T01:48:57;1.23;;;1.13;;
64986;SDS011;67903;52.108;9.358;2023-04-24T01:51:46;1.00;;;1.00;;
64986;SDS011;67903;52.108;9.358;2023-04-24T01:54:33;2.45;;;1.40;;
64986;SDS011;67903;52.108;9.358;2023-04-24T01:57:21;1.92;;;1.30;;
64986;SDS011;67903;52.108;9.358;2023-04-24T02:00:09;1.40;;;1.30;;
64986;SDS011;67903;52.108;9.358;2023-04-24T02:03:01;1.30;;;1.20;;
64986;SDS011;67903;52.108;9.358;2023-04-24T02:05:48;2.50;;;1.40;;
64986;SDS011;67903;52.108;9.358;2023-04-24T02:08:35;1.83;;;1.33;;
64986;SDS011;67903;52.108;9.358;2023-04-24T02:11:22;1.20;;;1.10;;
64986;SDS011;67903;52.108;9.358;2023-04-24T02:14:10;1.48;;;1.23;;
64986;SDS011;67903;52.108;9.358;2023-04-24T02:16:59;2.20;;;1.40;;
64986;SDS011;67903;52.108;9.358;2023-04-24T02:19:47;1.20;;;1.10;;
64986;SDS011;67903;52.108;9.358;2023-04-24T02:22:36;1.38;;;1.20;;
64986;SDS011;67903;52.108;9.358;2023-04-24T02:25:23;1.13;;;1.02;;
64986;SDS011;67903;52.108;9.358;2023-04-24T02:28:12;1.00;;;1.00;;
64986;SDS011;67903;52.108;9.358;2023-04-24T02:31:00;1.10;;;1.08;;
64986;SDS011;67903;52.108;9.358;2023-04-24T02:33:47;1.25;;;1.13;;
64986;SDS011;67903;52.108;9.358;2023-04-24T02:36:34;1.70;;;1.20;;
64986;SDS011;67903;52.108;9.358;2023-04-24T02:39:21;1.33;;;1.13;;
64986;SDS011;67903;52.108;9.358;2023-04-24T02:42:08;1.90;;;1.00;;
64986;SDS011;67903;52.108;9.358;2023-04-24T02:44:56;1.70;;;1.00;;
64986;SDS011;67903;52.108;9.358;2023-04-24T02:47:43;1.10;;;1.00;;
64986;SDS011;67903;52.108;9.358;2023-04-24T02:50:30;1.38;;;1.10;;
64986;SDS011;67903;52.108;9.358;2023-04-24T02:53:18;1.00;;;1.00;;
64986;SDS011;67903;52.108;9.358;2023-04-24T02:56:05;1.00;;;0.90;;
64986;SDS011;67903;52.108;9.358;2023-04-24T02:58:52;1.33;;;1.23;;
64986;SDS011;67903;52.108;9.358;2023-04-24T03:01:39;1.05;;;0.90;;
64986;SDS011;67903;52.108;9.358;2023-04-24T03:04:27;1.20;;;1.10;;
64986;SDS011;67903;52.108;9.358;2023-04-24T03:07:14;1.95;;;0.95;;
64986;SDS011;67903;52.108;9.358;2023-04-24T03:10:02;1.30;;;1.20;;
64986;SDS011;67903;52.108;9.358;2023-04-24T03:12:51;1.30;;;1.20;;
64986;SDS011;67903;52.108;9.358;2023-04-24T03:15:38;0.90;;;0.90;;
64986;SDS011;67903;52.108;9.358;2023-04-24T03:18:25;2.15;;;1.17;;
64986;SDS011;67903;52.108;9.358;2023-04-24T03:21:12;1.30;;;1.20;;
64986;SDS011;67903;52.108;9.358;2023-04-24T03:24:00;1.65;;;1.20;;
64986;SDS011;67903;52.108;9.358;2023-04-24T03:26:47;2.63;;;1.20;;
64986;SDS011;67903;52.108;9.358;2023-04-24T03:29:47;1.95;;;0.90;;
64986;SDS011;67903;52.108;9.358;2023-04-24T03:32:36;1.85;;;1.10;;
64986;SDS011;67903;52.108;9.358;2023-04-24T03:35:23;1.00;;;0.90;;
64986;SDS011;67903;52.108;9.358;2023-04-24T03:38:12;1.98;;;1.05;;
64986;SDS011;67903;52.108;9.358;2023-04-24T03:41:01;1.13;;;1.02;;
64986;SDS011;67903;52.108;9.358;2023-04-24T03:43:57;1.20;;;1.10;;
64986;SDS011;67903;52.108;9.358;2023-04-24T03:46:44;2.47;;;1.10;;
64986;SDS011;67903;52.108;9.358;2023-04-24T03:49:32;1.77;;;1.10;;
64986;SDS011;67903;52.108;9.358;2023-04-24T03:52:19;1.35;;;1.13;;
64986;SDS011;67903;52.108;9.358;2023-04-24T03:55:07;1.23;;;1.13;;
64986;SDS011;67903;52.108;9.358;2023-04-24T03:58:01;1.33;;;1.00;;
64986;SDS011;67903;52.108;9.358;2023-04-24T04:00:48;2.10;;;1.25;;
64986;SDS011;67903;52.108;9.358;2023-04-24T04:03:56;1.42;;;1.10;;
64986;SDS011;67903;52.108;9.358;2023-04-24T04:06:46;1.65;;;1.05;;
64986;SDS011;67903;52.108;9.358;2023-04-24T04:09:33;1.42;;;1.30;;
64986;SDS011;67903;52.108;9.358;2023-04-24T04:12:20;2.17;;;1.00;;
64986;SDS011;67903;52.108;9.358;2023-04-24T04:15:07;1.48;;;1.20;;
64986;SDS011;67903;52.108;9.358;2023-04-24T04:17:55;2.83;;;1.20;;
64986;SDS011;67903;52.108;9.358;2023-04-24T04:20:42;1.85;;;1.23;;
64986;SDS011;67903;52.108;9.358;2023-04-24T04:23:32;1.42;;;1.30;;
64986;SDS011;67903;52.108;9.358;2023-04-24T04:26:28;1.80;;;1.30;;
64986;SDS011;67903;52.108;9.358;2023-04-24T04:29:22;1.20;;;1.08;;
64986;SDS011;67903;52.108;9.358;2023-04-24T04:32:10;2.28;;;1.30;;
64986;SDS011;67903;52.108;9.358;2023-04-24T04:34:58;1.52;;;1.25;;
64986;SDS011;67903;52.108;9.358;2023-04-24T04:37:51;2.13;;;1.20;;
64986;SDS011;67903;52.108;9.358;2023-04-24T04:40:58;10.75;;;5.93;;
64986;SDS011;67903;52.108;9.358;2023-04-24T04:43:49;5.53;;;3.20;;
64986;SDS011;67903;52.108;9.358;2023-04-24T04:46:36;2.85;;;1.63;;
64986;SDS011;67903;52.108;9.358;2023-04-24T04:49:34;2.72;;;1.70;;
64986;SDS011;67903;52.108;9.358;2023-04-24T04:52:23;9.57;;;4.65;;
64986;SDS011;67903;52.108;9.358;2023-04-24T04:55:22;9.52;;;6.63;;
64986;SDS011;67903;52.108;9.358;2023-04-24T04:58:29;3.00;;;1.58;;
64986;SDS011;67903;52.108;9.358;2023-04-24T05:01:19;2.22;;;1.60;;
64986;SDS011;67903;52.108;9.358;2023-04-24T05:04:07;1.33;;;1.23;;
64986;SDS011;67903;52.108;9.358;2023-04-24T05:06:56;2.97;;;2.28;;
64986;SDS011;67903;52.108;9.358;2023-04-24T05:09:45;1.65;;;1.40;;
64986;SDS011;67903;52.108;9.358;2023-04-24T05:12:33;7.30;;;5.57;;
64986;SDS011;67903;52.108;9.358;2023-04-24T05:15:22;1.65;;;1.38;;
64986;SDS011;67903;52.108;9.358;2023-04-24T05:18:09;2.17;;;1.98;;
64986;SDS011;67903;52.108;9.358;2023-04-24T05:20:56;2.13;;;1.70;;
64986;SDS011;67903;52.108;9.358;2023-04-24T05:23:44;2.75;;;1.73;;
64986;SDS011;67903;52.108;9.358;2023-04-24T05:26:36;2.95;;;1.98;;
64986;SDS011;67903;52.108;9.358;2023-04-24T05:29:24;2.33;;;2.05;;
64986;SDS011;67903;52.108;9.358;2023-04-24T05:32:13;3.47;;;2.63;;
64986;SDS011;67903;52.108;9.358;2023-04-24T05:35:00;12.40;;;9.52;;
64986;SDS011;67903;52.108;9.358;2023-04-24T05:37:47;40.20;;;28.55;;
64986;SDS011;67903;52.108;9.358;2023-04-24T05:40:36;7.63;;;6.25;;
64986;SDS011;67903;52.108;9.358;2023-04-24T05:43:23;3.08;;;1.98;;
64986;SDS011;67903;52.108;9.358;2023-04-24T05:46:11;2.17;;;1.73;;
64986;SDS011;67903;52.108;9.358;2023-04-24T05:48:58;1.70;;;1.55;;
64986;SDS011;67903;52.108;9.358;2023-04-24T05:51:46;1.70;;;1.60;;
64986;SDS011;67903;52.108;9.358;2023-04-24T05:54:33;2.05;;;1.90;;
64986;SDS011;67903;52.108;9.358;2023-04-24T05:57:20;1.80;;;1.70;;
64986;SDS011;67903;52.108;9.358;2023-04-24T06:00:12;1.90;;;1.80;;
64986;SDS011;67903;52.108;9.358;2023-04-24T06:03:03;1.67;;;1.50;;
64986;SDS011;67903;52.108;9.358;2023-04-24T06:05:51;1.80;;;1.60;;
64986;SDS011;67903;52.108;9.358;2023-04-24T06:08:40;2.15;;;1.90;;
64986;SDS011;67903;52.108;9.358;2023-04-24T06:11:29;2.35;;;1.88;;
64986;SDS011;67903;52.108;9.358;2023-04-24T06:14:16;3.58;;;1.90;;
64986;SDS011;67903;52.108;9.358;2023-04-24T06:17:22;2.75;;;1.80;;
64986;SDS011;67903;52.108;9.358;2023-04-24T06:20:10;3.97;;;3.55;;
64986;SDS011;67903;52.108;9.358;2023-04-24T06:22:57;4.25;;;3.85;;
64986;SDS011;67903;52.108;9.358;2023-04-24T06:25:44;4.53;;;4.13;;
64986;SDS011;67903;52.108;9.358;2023-04-24T06:28:32;6.05;;;4.95;;
64986;SDS011;67903;52.108;9.358;2023-04-24T06:31:19;5.88;;;5.28;;
64986;SDS011;67903;52.108;9.358;2023-04-24T06:34:06;6.28;;;5.30;;
64986;SDS011;67903;52.108;9.358;2023-04-24T06:36:54;6.03;;;5.47;;
64986;SDS011;67903;52.108;9.358;2023-04-24T06:39:41;6.22;;;5.63;;
64986;SDS011;67903;52.108;9.358;2023-04-24T06:42:29;6.68;;;6.07;;
64986;SDS011;67903;52.108;9.358;2023-04-24T06:45:16;6.72;;;6.07;;
64986;SDS011;67903;52.108;9.358;2023-04-24T06:48:03;8.10;;;7.30;;
64986;SDS011;67903;52.108;9.358;2023-04-24T06:50:51;8.05;;;6.75;;
64986;SDS011;67903;52.108;9.358;2023-04-24T06:53:38;8.10;;;7.30;;
64986;SDS011;67903;52.108;9.358;2023-04-24T06:56:26;7.70;;;6.70;;
64986;SDS011;67903;52.108;9.358;2023-04-24T06:59:13;7.35;;;6.65;;
64986;SDS011;67903;52.108;9.358;2023-04-24T07:02:00;6.85;;;6.15;;
64986;SDS011;67903;52.108;9.358;2023-04-24T07:04:47;7.35;;;6.53;;
64986;SDS011;67903;52.108;9.358;2023-04-24T07:07:34;6.53;;;5.95;;
64986;SDS011;67903;52.108;9.358;2023-04-24T07:10:24;7.10;;;6.40;;
64986;SDS011;67903;52.108;9.358;2023-04-24T07:13:13;6.57;;;5.95;;
64986;SDS011;67903;52.108;9.358;2023-04-24T07:16:00;6.30;;;5.55;;
64986;SDS011;67903;52.108;9.358;2023-04-24T07:18:47;5.90;;;5.40;;
64986;SDS011;67903;52.108;9.358;2023-04-24T07:21:34;6.10;;;5.47;;
64986;SDS011;67903;52.108;9.358;2023-04-24T07:24:22;5.72;;;5.22;;
64986;SDS011;67903;52.108;9.358;2023-04-24T07:27:11;9.45;;;6.18;;
64986;SDS011;67903;52.108;9.358;2023-04-24T07:29:58;6.57;;;5.82;;
64986;SDS011;67903;52.108;9.358;2023-04-24T07:32:45;7.40;;;6.45;;
64986;SDS011;67903;52.108;9.358;2023-04-24T07:35:32;6.75;;;5.78;;
64986;SDS011;67903;52.108;9.358;2023-04-24T07:38:20;6.68;;;5.82;;
64986;SDS011;67903;52.108;9.358;2023-04-24T07:41:08;7.60;;;5.53;;
64986;SDS011;67903;52.108;9.358;2023-04-24T07:43:55;8.30;;;6.13;;
64986;SDS011;67903;52.108;9.358;2023-04-24T07:46:42;6.10;;;5.50;;
64986;SDS011;67903;52.108;9.358;2023-04-24T07:49:29;6.53;;;5.68;;
64986;SDS011;67903;52.108;9.358;2023-04-24T07:52:16;6.80;;;6.20;;
64986;SDS011;67903;52.108;9.358;2023-04-24T07:55:04;7.63;;;5.80;;
64986;SDS011;67903;52.108;9.358;2023-04-24T07:57:51;6.47;;;5.80;;
64986;SDS011;67903;52.108;9.358;2023-04-24T08:00:39;6.55;;;5.95;;
64986;SDS011;67903;52.108;9.358;2023-04-24T08:03:26;6.40;;;5.68;;
64986;SDS011;67903;52.108;9.358;2023-04-24T08:06:13;6.25;;;5.65;;
64986;SDS011;67903;52.108;9.358;2023-04-24T08:09:00;5.88;;;5.22;;
64986;SDS011;67903;52.108;9.358;2023-04-24T08:11:47;5.72;;;5.20;;
64986;SDS011;67903;52.108;9.358;2023-04-24T08:14:34;5.55;;;5.05;;
64986;SDS011;67903;52.108;9.358;2023-04-24T08:17:22;4.78;;;4.38;;
64986;SDS011;67903;52.108;9.358;2023-04-24T08:20:09;4.55;;;4.13;;
64986;SDS011;67903;52.108;9.358;2023-04-24T08:23:00;4.65;;;3.97;;
64986;SDS011;67903;52.108;9.358;2023-04-24T08:25:47;4.32;;;3.92;;
64986;SDS011;67903;52.108;9.358;2023-04-24T08:28:34;4.22;;;3.83;;
64986;SDS011;67903;52.108;9.358;2023-04-24T08:31:22;4.30;;;3.90;;
64986;SDS011;67903;52.108;9.358;2023-04-24T08:34:11;5.18;;;3.80;;
64986;SDS011;67903;52.108;9.358;2023-04-24T08:36:58;5.25;;;3.97;;
64986;SDS011;67903;52.108;9.358;2023-04-24T08:39:45;5.63;;;4.20;;
64986;SDS011;67903;52.108;9.358;2023-04-24T08:42:32;3.95;;;3.65;;
64986;SDS011;67903;52.108;9.358;2023-04-24T08:45:20;4.57;;;4.18;;
64986;SDS011;67903;52.108;9.358;2023-04-24T08:48:08;4.05;;;3.60;;
64986;SDS011;67903;52.108;9.358;2023-04-24T08:51:07;4.43;;;4.03;;
64986;SDS011;67903;52.108;9.358;2023-04-24T08:53:55;3.90;;;3.55;;
64986;SDS011;67903;52.108;9.358;2023-04-24T08:56:44;4.35;;;4.00;;
64986;SDS011;67903;52.108;9.358;2023-04-24T08:59:31;4.47;;;4.07;;
64986;SDS011;67903;52.108;9.358;2023-04-24T09:02:19;4.50;;;4.10;;
64986;SDS011;67903;52.108;9.358;2023-04-24T09:05:08;4.18;;;3.78;;
64986;SDS011;67903;52.108;9.358;2023-04-24T09:07:56;4.22;;;3.90;;
64986;SDS011;67903;52.108;9.358;2023-04-24T09:10:44;4.25;;;3.85;;
64986;SDS011;67903;52.108;9.358;2023-04-24T09:13:31;4.07;;;3.67;;
64986;SDS011;67903;52.108;9.358;2023-04-24T09:16:19;5.05;;;3.85;;
64986;SDS011;67903;52.108;9.358;2023-04-24T09:19:07;3.78;;;3.30;;
64986;SDS011;67903;52.108;9.358;2023-04-24T09:21:54;4.93;;;3.35;;
64986;SDS011;67903;52.108;9.358;2023-04-24T09:24:41;3.47;;;2.50;;
64986;SDS011;67903;52.108;9.358;2023-04-24T09:27:28;2.42;;;2.22;;
64986;SDS011;67903;52.108;9.358;2023-04-24T09:30:16;4.00;;;2.45;;
64986;SDS011;67903;52.108;9.358;2023-04-24T09:33:14;2.33;;;2.17;;
64986;SDS011;67903;52.108;9.358;2023-04-24T09:36:02;2.75;;;2.00;;
64986;SDS011;67903;52.108;9.358;2023-04-24T09:38:52;2.45;;;2.17;;
64986;SDS011;67903;52.108;9.358;2023-04-24T09:41:45;4.38;;;2.42;;
64986;SDS011;67903;52.108;9.358;2023-04-24T09:44:34;2.53;;;2.33;;
64986;SDS011;67903;52.108;9.358;2023-04-24T09:47:21;3.28;;;2.45;;
64986;SDS011;67903;52.108;9.358;2023-04-24T09:50:12;4.50;;;2.50;;
64986;SDS011;67903;52.108;9.358;2023-04-24T09:53:04;2.50;;;2.28;;
64986;SDS011;67903;52.108;9.358;2023-04-24T09:55:55;2.72;;;2.53;;
64986;SDS011;67903;52.108;9.358;2023-04-24T09:58:43;3.40;;;2.30;;
64986;SDS011;67903;52.108;9.358;2023-04-24T10:01:30;2.70;;;2.50;;
64986;SDS011;67903;52.108;9.358;2023-04-24T10:04:22;5.38;;;2.30;;
64986;SDS011;67903;52.108;9.358;2023-04-24T10:07:11;3.30;;;2.33;;
64986;SDS011;67903;52.108;9.358;2023-04-24T10:09:58;2.55;;;2.25;;
64986;SDS011;67903;52.108;9.358;2023-04-24T10:12:46;2.78;;;2.50;;
64986;SDS011;67903;52.108;9.358;2023-04-24T10:15:33;3.28;;;2.55;;
64986;SDS011;67903;52.108;9.358;2023-04-24T10:18:21;2.90;;;2.58;;
64986;SDS011;67903;52.108;9.358;2023-04-24T10:21:10;2.88;;;2.42;;
64986;SDS011;67903;52.108;9.358;2023-04-24T10:23:57;2.45;;;2.25;;
64986;SDS011;67903;52.108;9.358;2023-04-24T10:26:46;2.95;;;2.67;;
64986;SDS011;67903;52.108;9.358;2023-04-24T10:29:36;2.58;;;2.38;;
64986;SDS011;67903;52.108;9.358;2023-04-24T10:32:25;2.40;;;2.20;;
64986;SDS011;67903;52.108;9.358;2023-04-24T10:35:13;2.50;;;2.30;;
64986;SDS011;67903;52.108;9.358;2023-04-24T10:38:03;2.63;;;2.35;;
64986;SDS011;67903;52.108;9.358;2023-04-24T10:41:08;2.22;;;2.03;;
64986;SDS011;67903;52.108;9.358;2023-04-24T10:44:13;3.55;;;2.47;;
64986;SDS011;67903;52.108;9.358;2023-04-24T10:47:01;3.10;;;1.77;;
64986;SDS011;67903;52.108;9.358;2023-04-24T10:49:50;2.22;;;1.70;;
64986;SDS011;67903;52.108;9.358;2023-04-24T10:52:43;1.95;;;1.67;;
64986;SDS011;67903;52.108;9.358;2023-04-24T10:55:45;2.00;;;1.55;;
64986;SDS011;67903;52.108;9.358;2023-04-24T10:58:52;1.92;;;1.50;;
64986;SDS011;67903;52.108;9.358;2023-04-24T11:01:40;1.50;;;1.40;;
64986;SDS011;67903;52.108;9.358;2023-04-24T11:04:38;2.38;;;1.55;;
64986;SDS011;67903;52.108;9.358;2023-04-24T11:07:25;1.55;;;1.45;;
64986;SDS011;67903;52.108;9.358;2023-04-24T11:10:24;2.03;;;1.80;;
64986;SDS011;67903;52.108;9.358;2023-04-24T11:13:21;2.42;;;1.30;;
64986;SDS011;67903;52.108;9.358;2023-04-24T11:16:12;1.30;;;1.20;;
64986;SDS011;67903;52.108;9.358;2023-04-24T11:21:55;1.35;;;1.20;;
64986;SDS011;67903;52.108;9.358;2023-04-24T11:27:41;1.70;;;1.45;;
64986;SDS011;67903;52.108;9.358;2023-04-24T11:30:29;1.60;;;1.50;;
64986;SDS011;67903;52.108;9.358;2023-04-24T11:33:20;1.55;;;1.27;;
64986;SDS011;67903;52.108;9.358;2023-04-24T11:36:08;1.70;;;1.60;;
64986;SDS011;67903;52.108;9.358;2023-04-24T11:38:55;1.13;;;1.02;;
64986;SDS011;67903;52.108;9.358;2023-04-24T11:41:43;1.25;;;0.80;;
64986;SDS011;67903;52.108;9.358;2023-04-24T11:44:31;0.75;;;0.75;;
64986;SDS011;67903;52.108;9.358;2023-04-24T11:47:19;1.00;;;0.80;;
64986;SDS011;67903;52.108;9.358;2023-04-24T11:50:08;0.98;;;0.98;;
64986;SDS011;67903;52.108;9.358;2023-04-24T11:53:00;2.42;;;1.00;;
64986;SDS011;67903;52.108;9.358;2023-04-24T11:55:47;0.80;;;0.80;;
64986;SDS011;67903;52.108;9.358;2023-04-24T11:58:38;3.58;;;1.13;;
64986;SDS011;67903;52.108;9.358;2023-04-24T12:01:26;2.25;;;1.05;;
64986;SDS011;67903;52.108;9.358;2023-04-24T12:04:13;2.25;;;1.42;;
64986;SDS011;67903;52.108;9.358;2023-04-24T12:07:02;1.80;;;1.00;;
64986;SDS011;67903;52.108;9.358;2023-04-24T12:09:55;1.00;;;1.00;;
64986;SDS011;67903;52.108;9.358;2023-04-24T12:12:44;1.35;;;1.25;;
64986;SDS011;67903;52.108;9.358;2023-04-24T12:15:32;2.78;;;1.25;;
64986;SDS011;67903;52.108;9.358;2023-04-24T12:18:23;1.40;;;1.30;;
64986;SDS011;67903;52.108;9.358;2023-04-24T12:21:21;2.72;;;1.80;;
64986;SDS011;67903;52.108;9.358;2023-04-24T12:24:09;2.60;;;1.55;;
64986;SDS011;67903;52.108;9.358;2023-04-24T12:26:56;1.92;;;1.60;;
64986;SDS011;67903;52.108;9.358;2023-04-24T12:29:51;1.90;;;1.80;;
64986;SDS011;67903;52.108;9.358;2023-04-24T12:32:45;1.83;;;1.73;;
64986;SDS011;67903;52.108;9.358;2023-04-24T12:35:36;1.60;;;1.50;;
64986;SDS011;67903;52.108;9.358;2023-04-24T12:38:27;1.60;;;1.50;;
64986;SDS011;67903;52.108;9.358;2023-04-24T12:41:26;1.40;;;1.30;;
64986;SDS011;67903;52.108;9.358;2023-04-24T12:44:17;1.20;;;1.20;;
64986;SDS011;67903;52.108;9.358;2023-04-24T12:47:05;1.10;;;1.10;;
64986;SDS011;67903;52.108;9.358;2023-04-24T12:49:52;1.30;;;1.20;;
64986;SDS011;67903;52.108;9.358;2023-04-24T12:52:39;1.40;;;1.30;;
64986;SDS011;67903;52.108;9.358;2023-04-24T12:55:27;1.30;;;1.20;;
64986;SDS011;67903;52.108;9.358;2023-04-24T12:58:14;1.00;;;1.00;;
64986;SDS011;67903;52.108;9.358;2023-04-24T13:01:01;1.20;;;1.10;;
64986;SDS011;67903;52.108;9.358;2023-04-24T13:03:49;0.82;;;0.82;;
64986;SDS011;67903;52.108;9.358;2023-04-24T13:06:36;1.25;;;1.15;;
64986;SDS011;67903;52.108;9.358;2023-04-24T13:09:23;1.20;;;1.10;;
64986;SDS011;67903;52.108;9.358;2023-04-24T13:12:10;1.10;;;1.00;;
64986;SDS011;67903;52.108;9.358;2023-04-24T13:14:58;1.20;;;1.10;;
64986;SDS011;67903;52.108;9.358;2023-04-24T13:17:45;0.90;;;0.90;;
64986;SDS011;67903;52.108;9.358;2023-04-24T13:20:32;1.10;;;1.00;;
64986;SDS011;67903;52.108;9.358;2023-04-24T13:23:22;0.70;;;0.70;;
64986;SDS011;67903;52.108;9.358;2023-04-24T13:26:09;0.82;;;0.82;;
64986;SDS011;67903;52.108;9.358;2023-04-24T13:28:56;1.08;;;1.00;;
64986;SDS011;67903;52.108;9.358;2023-04-24T13:31:43;1.23;;;1.13;;
64986;SDS011;67903;52.108;9.358;2023-04-24T13:34:30;2.72;;;1.25;;
64986;SDS011;67903;52.108;9.358;2023-04-24T13:37:17;5.13;;;1.20;;
64986;SDS011;67903;52.108;9.358;2023-04-24T13:40:05;4.10;;;1.55;;
64986;SDS011;67903;52.108;9.358;2023-04-24T13:42:53;2.67;;;1.50;;
64986;SDS011;67903;52.108;9.358;2023-04-24T13:45:40;1.20;;;1.10;;
64986;SDS011;67903;52.108;9.358;2023-04-24T13:48:27;1.60;;;1.30;;
64986;SDS011;67903;52.108;9.358;2023-04-24T13:51:14;1.67;;;1.20;;
64986;SDS011;67903;52.108;9.358;2023-04-24T13:54:02;1.85;;;1.70;;
64986;SDS011;67903;52.108;9.358;2023-04-24T13:56:49;1.40;;;1.30;;
64986;SDS011;67903;52.108;9.358;2023-04-24T13:59:37;1.90;;;1.50;;
64986;SDS011;67903;52.108;9.358;2023-04-24T14:02:24;2.60;;;2.03;;
64986;SDS011;67903;52.108;9.358;2023-04-24T14:05:12;3.40;;;1.90;;
64986;SDS011;67903;52.108;9.358;2023-04-24T14:08:01;2.10;;;1.90;;
64986;SDS011;67903;52.108;9.358;2023-04-24T14:10:49;2.45;;;2.25;;
64986;SDS011;67903;52.108;9.358;2023-04-24T14:13:37;2.85;;;2.10;;
64986;SDS011;67903;52.108;9.358;2023-04-24T14:16:24;2.13;;;1.88;;
64986;SDS011;67903;52.108;9.358;2023-04-24T14:19:11;3.78;;;2.30;;
64986;SDS011;67903;52.108;9.358;2023-04-24T14:21:59;2.53;;;2.30;;
64986;SDS011;67903;52.108;9.358;2023-04-24T14:24:46;3.75;;;2.17;;
64986;SDS011;67903;52.108;9.358;2023-04-24T14:27:33;3.08;;;2.20;;
64986;SDS011;67903;52.108;9.358;2023-04-24T14:30:21;3.35;;;2.78;;
64986;SDS011;67903;52.108;9.358;2023-04-24T14:33:08;3.17;;;2.60;;
64986;SDS011;67903;52.108;9.358;2023-04-24T14:35:55;2.50;;;2.30;;
64986;SDS011;67903;52.108;9.358;2023-04-24T14:38:42;5.07;;;2.78;;
64986;SDS011;67903;52.108;9.358;2023-04-24T14:41:29;3.60;;;2.97;;
64986;SDS011;67903;52.108;9.358;2023-04-24T14:44:17;2.75;;;2.45;;
64986;SDS011;67903;52.108;9.358;2023-04-24T14:47:04;4.32;;;2.92;;
64986;SDS011;67903;52.108;9.358;2023-04-24T14:49:53;3.88;;;2.90;;
64986;SDS011;67903;52.108;9.358;2023-04-24T14:52:40;5.30;;;3.25;;
64986;SDS011;67903;52.108;9.358;2023-04-24T14:55:27;4.90;;;3.00;;
64986;SDS011;67903;52.108;9.358;2023-04-24T14:58:15;4.13;;;3.25;;
64986;SDS011;67903;52.108;9.358;2023-04-24T15:01:02;4.30;;;2.75;;
64986;SDS011;67903;52.108;9.358;2023-04-24T15:03:49;6.03;;;3.47;;
64986;SDS011;67903;52.108;9.358;2023-04-24T15:06:37;5.78;;;3.38;;
64986;SDS011;67903;52.108;9.358;2023-04-24T15:09:24;4.15;;;3.42;;
64986;SDS011;67903;52.108;9.358;2023-04-24T15:12:12;5.05;;;3.08;;
64986;SDS011;67903;52.108;9.358;2023-04-24T15:15:00;5.68;;;3.65;;
64986;SDS011;67903;52.108;9.358;2023-04-24T15:17:47;4.35;;;3.90;;
64986;SDS011;67903;52.108;9.358;2023-04-24T15:20:34;5.90;;;4.35;;
64986;SDS011;67903;52.108;9.358;2023-04-24T15:23:24;4.88;;;4.38;;
64986;SDS011;67903;52.108;9.358;2023-04-24T15:26:11;8.25;;;4.10;;
64986;SDS011;67903;52.108;9.358;2023-04-24T15:28:58;6.20;;;4.75;;
64986;SDS011;67903;52.108;9.358;2023-04-24T15:31:45;5.88;;;4.82;;
64986;SDS011;67903;52.108;9.358;2023-04-24T15:34:32;7.53;;;4.55;;
64986;SDS011;67903;52.108;9.358;2023-04-24T15:37:19;9.73;;;5.00;;
64986;SDS011;67903;52.108;9.358;2023-04-24T15:40:06;7.03;;;5.00;;
64986;SDS011;67903;52.108;9.358;2023-04-24T15:42:54;6.90;;;5.43;;
64986;SDS011;67903;52.108;9.358;2023-04-24T15:45:41;7.20;;;5.43;;
64986;SDS011;67903;52.108;9.358;2023-04-24T15:48:29;8.45;;;5.28;;
64986;SDS011;67903;52.108;9.358;2023-04-24T15:51:16;7.38;;;5.95;;
64986;SDS011;67903;52.108;9.358;2023-04-24T15:54:03;7.65;;;5.45;;
64986;SDS011;67903;52.108;9.358;2023-04-24T15:56:50;9.00;;;5.60;;
64986;SDS011;67903;52.108;9.358;2023-04-24T15:59:37;9.18;;;6.18;;
64986;SDS011;67903;52.108;9.358;2023-04-24T16:02:24;8.23;;;5.43;;
64986;SDS011;67903;52.108;9.358;2023-04-24T16:05:12;7.32;;;5.90;;
64986;SDS011;67903;52.108;9.358;2023-04-24T16:07:59;7.55;;;6.32;;
64986;SDS011;67903;52.108;9.358;2023-04-24T16:10:46;7.65;;;6.05;;
64986;SDS011;67903;52.108;9.358;2023-04-24T16:13:33;8.02;;;5.53;;
64986;SDS011;67903;52.108;9.358;2023-04-24T16:16:20;9.45;;;5.53;;
64986;SDS011;67903;52.108;9.358;2023-04-24T16:19:09;7.85;;;5.70;;
64986;SDS011;67903;52.108;9.358;2023-04-24T16:21:56;6.32;;;5.13;;
64986;SDS011;67903;52.108;9.358;2023-04-24T16:24:44;7.80;;;4.80;;
64986;SDS011;67903;52.108;9.358;2023-04-24T16:27:33;6.63;;;5.20;;
64986;SDS011;67903;52.108;9.358;2023-04-24T16:30:20;6.22;;;4.93;;
64986;SDS011;67903;52.108;9.358;2023-04-24T16:33:08;4.80;;;4.30;;
64986;SDS011;67903;52.108;9.358;2023-04-24T16:35:56;11.68;;;7.88;;
64986;SDS011;67903;52.108;9.358;2023-04-24T16:38:43;8.57;;;4.90;;
64986;SDS011;67903;52.108;9.358;2023-04-24T16:41:30;6.00;;;4.30;;
64986;SDS011;67903;52.108;9.358;2023-04-24T16:44:17;6.10;;;4.50;;
64986;SDS011;67903;52.108;9.358;2023-04-24T16:47:05;4.63;;;3.75;;
64986;SDS011;67903;52.108;9.358;2023-04-24T16:49:53;5.60;;;3.95;;
64986;SDS011;67903;52.108;9.358;2023-04-24T16:52:40;5.43;;;3.90;;
64986;SDS011;67903;52.108;9.358;2023-04-24T16:55:28;5.88;;;3.83;;
64986;SDS011;67903;52.108;9.358;2023-04-24T16:58:16;5.00;;;3.63;;
64986;SDS011;67903;52.108;9.358;2023-04-24T17:01:03;4.22;;;3.10;;
64986;SDS011;67903;52.108;9.358;2023-04-24T17:03:50;4.32;;;3.33;;